Time;durP1;ratioP1;P1;durP2;ratioP2;P2;SDS_P1;SDS_P2;PMS_P1;PMS_P2;Temp;Humidity;BMP_temperature;BMP_pressure;BME280_temperature;BME280_humidity;BME280_pressure;Samples;Min_cycle;Max_cycle;Signal;HPM_P1;HPM_P2
2021/05/11 00:00:30;;;;;;;20.80;15.93;;;13.40;99.90;;;;;;6206951;28;20518;-78
2021/05/11 00:03:32;;;;;;;20.08;15.20;;;13.30;99.90;;;;;;6208092;28;20074;-77
2021/05/11 00:06:34;;;;;;;24.52;17.17;;;13.40;99.90;;;;;;6207171;28;20081;-77
2021/05/11 00:09:35;;;;;;;19.13;14.98;;;13.30;99.90;;;;;;6207688;28;20053;-78
2021/05/11 00:12:37;;;;;;;21.80;16.92;;;13.40;99.90;;;;;;6207195;28;20066;-79
2021/05/11 00:15:38;;;;;;;16.20;12.27;;;13.30;99.90;;;;;;6205996;28;20097;-78
2021/05/11 00:18:41;;;;;;;21.58;14.30;;;13.30;99.90;;;;;;6204523;28;20081;-79
2021/05/11 00:21:42;;;;;;;20.48;14.23;;;13.30;99.90;;;;;;6206814;28;20069;-76
2021/05/11 00:24:43;;;;;;;21.60;14.68;;;13.30;99.90;;;;;;6206854;28;20110;-77
2021/05/11 00:27:44;;;;;;;22.88;15.98;;;13.30;99.90;;;;;;6207339;28;20050;-78
2021/05/11 00:30:46;;;;;;;20.55;14.88;;;13.20;99.90;;;;;;6206506;28;20130;-78
2021/05/11 00:33:49;;;;;;;19.58;15.13;;;13.20;99.90;;;;;;6205917;28;20088;-78
2021/05/11 00:36:51;;;;;;;23.55;15.48;;;13.20;99.90;;;;;;6206001;28;20057;-78
2021/05/11 00:39:52;;;;;;;21.40;14.70;;;13.20;99.90;;;;;;6206645;28;20072;-78
2021/05/11 00:42:53;;;;;;;23.25;15.02;;;13.20;99.90;;;;;;6207689;28;20531;-78
2021/05/11 00:45:57;;;;;;;20.25;15.20;;;13.20;99.90;;;;;;6206066;28;20050;-79
2021/05/11 00:48:59;;;;;;;23.20;15.20;;;13.20;99.90;;;;;;6205755;28;20070;-77
2021/05/11 00:52:02;;;;;;;21.48;13.93;;;13.20;99.90;;;;;;6205537;28;20544;-78
2021/05/11 00:55:04;;;;;;;21.52;15.75;;;13.20;99.90;;;;;;6205822;28;20050;-79
2021/05/11 00:58:06;;;;;;;22.58;14.60;;;13.10;99.90;;;;;;6205555;28;20046;-77
2021/05/11 01:01:07;;;;;;;26.08;14.70;;;13.10;99.90;;;;;;6205603;28;20046;-78
2021/05/11 01:04:09;;;;;;;22.38;15.68;;;13.10;99.90;;;;;;6205377;28;20046;-78
2021/05/11 01:07:11;;;;;;;20.35;14.90;;;13.10;99.90;;;;;;6206862;28;20050;-79
2021/05/11 01:10:12;;;;;;;21.60;15.00;;;13.00;99.90;;;;;;6204815;28;20049;-78
2021/05/11 01:13:13;;;;;;;21.88;16.98;;;13.00;99.90;;;;;;6205642;28;20053;-78
2021/05/11 01:16:15;;;;;;;29.25;18.35;;;13.00;99.90;;;;;;6205932;28;20136;-79
2021/05/11 01:19:21;;;;;;;22.58;14.95;;;13.00;99.90;;;;;;6206565;28;20109;-78
2021/05/11 01:22:33;;;;;;;19.85;14.57;;;13.00;99.90;;;;;;6204454;28;20094;-78
2021/05/11 01:25:35;;;;;;;17.23;13.13;;;13.00;99.90;;;;;;6204666;28;20124;-78
2021/05/11 01:28:46;;;;;;;17.30;12.95;;;12.90;99.90;;;;;;6204737;28;20042;-78
2021/05/11 01:32:20;;;;;;;21.52;15.65;;;12.90;99.90;;;;;;6205013;28;20054;-78
2021/05/11 01:48:45;;;;;;;19.23;15.35;;;12.70;99.90;;;;;;6205702;28;20042;-79
2021/05/11 01:52:04;;;;;;;25.20;16.05;;;12.60;99.90;;;;;;6206234;28;20053;-78
2021/05/11 01:55:22;;;;;;;25.67;17.20;;;12.60;99.90;;;;;;6210095;28;20051;-77
2021/05/11 02:25:28;;;;;;;36.60;22.02;;;12.50;99.90;;;;;;6204053;28;20042;-78
2021/05/11 02:28:30;;;;;;;39.78;22.60;;;12.50;99.90;;;;;;6204171;28;20053;-77
2021/05/11 02:31:32;;;;;;;39.38;21.67;;;12.50;99.90;;;;;;6205074;28;20053;-77
2021/05/11 02:34:33;;;;;;;36.25;20.98;;;12.60;99.90;;;;;;6204792;28;20042;-77
2021/05/11 02:37:35;;;;;;;22.65;13.93;;;12.60;99.90;;;;;;6206675;28;20058;-78
2021/05/11 02:40:36;;;;;;;20.92;13.68;;;12.60;99.90;;;;;;6209757;28;20043;-79
2021/05/11 02:43:39;;;;;;;23.83;15.18;;;12.60;99.90;;;;;;6210340;28;20082;-79
2021/05/11 02:46:40;;;;;;;22.73;14.30;;;12.60;99.90;;;;;;6209535;28;20054;-78
2021/05/11 02:49:44;;;;;;;22.55;13.60;;;12.60;99.90;;;;;;6208569;28;20050;-78
2021/05/11 02:52:45;;;;;;;22.52;13.82;;;12.60;99.90;;;;;;6208952;28;20133;-78
2021/05/11 02:55:47;;;;;;;20.70;12.95;;;12.60;99.90;;;;;;6209645;28;20102;-78
2021/05/11 02:58:49;;;;;;;20.73;13.57;;;12.60;99.90;;;;;;6208137;28;20092;-78
2021/05/11 03:01:50;;;;;;;21.15;12.65;;;12.60;99.90;;;;;;6208416;28;20420;-78
2021/05/11 03:04:52;;;;;;;18.20;13.05;;;12.60;99.90;;;;;;6208658;28;20069;-77
2021/05/11 03:07:53;;;;;;;22.27;12.57;;;12.60;99.90;;;;;;6207748;28;20062;-78
2021/05/11 03:10:54;;;;;;;20.65;14.00;;;12.60;99.90;;;;;;6209842;28;20050;-78
2021/05/11 03:13:56;;;;;;;18.10;13.43;;;12.70;99.90;;;;;;6209516;28;20062;-78
2021/05/11 03:16:58;;;;;;;17.10;11.48;;;12.70;99.90;;;;;;6209883;28;20070;-79
2021/05/11 03:19:59;;;;;;;17.83;13.30;;;12.70;99.90;;;;;;6209688;28;20062;-79
2021/05/11 03:23:02;;;;;;;19.55;11.60;;;12.70;99.90;;;;;;6211731;28;20132;-77
2021/05/11 03:26:03;;;;;;;23.95;13.77;;;12.60;99.90;;;;;;6214804;28;20042;-79
2021/05/11 03:29:05;;;;;;;22.75;12.90;;;12.70;99.90;;;;;;6207850;28;20151;-79
2021/05/11 03:32:07;;;;;;;23.55;13.73;;;12.70;99.90;;;;;;6207411;28;20082;-79
2021/05/11 03:35:09;;;;;;;19.58;12.05;;;12.60;99.90;;;;;;6207758;28;20150;-79
2021/05/11 03:38:11;;;;;;;18.77;13.50;;;12.60;99.90;;;;;;6206734;28;20636;-78
2021/05/11 03:41:14;;;;;;;19.27;14.30;;;12.60;99.90;;;;;;6201186;28;20073;-78
2021/05/11 03:44:21;;;;;;;21.55;13.10;;;12.60;99.90;;;;;;6201585;28;20046;-78
2021/05/11 03:47:23;;;;;;;16.50;11.38;;;12.60;99.90;;;;;;6202045;28;20187;-78
2021/05/11 03:50:25;;;;;;;19.13;12.35;;;12.50;99.90;;;;;;6201028;28;20109;-78
2021/05/11 03:53:26;;;;;;;18.90;11.88;;;12.40;99.90;;;;;;6201360;28;20046;-77
2021/05/11 03:56:28;;;;;;;19.25;11.98;;;12.40;99.90;;;;;;6201353;28;20125;-77
2021/05/11 03:59:30;;;;;;;19.90;12.40;;;12.30;99.90;;;;;;6201038;28;20133;-78
2021/05/11 04:02:31;;;;;;;17.98;11.18;;;12.40;99.90;;;;;;6201032;28;20057;-77
2021/05/11 04:05:33;;;;;;;15.23;11.82;;;12.50;99.90;;;;;;6201459;28;20444;-77
2021/05/11 04:08:42;;;;;;;16.52;10.73;;;12.50;99.90;;;;;;6200873;28;20050;-79
2021/05/11 04:18:38;;;;;;;20.00;14.00;;;12.70;99.90;;;;;;6174656;28;20043;-78
2021/05/11 04:21:39;;;;;;;19.98;12.55;;;12.70;99.90;;;;;;6200463;28;20100;-77
2021/05/11 04:24:40;;;;;;;15.27;11.70;;;12.70;99.90;;;;;;6200336;28;20065;-78
2021/05/11 04:27:42;;;;;;;20.38;12.40;;;12.70;99.90;;;;;;6201210;28;20078;-77
2021/05/11 04:30:44;;;;;;;23.10;12.70;;;12.80;99.90;;;;;;6200308;28;20478;-78
2021/05/11 04:33:46;;;;;;;25.95;13.93;;;12.80;99.90;;;;;;6200575;28;20080;-77
2021/05/11 04:36:47;;;;;;;25.80;16.48;;;12.90;99.90;;;;;;6200808;28;20050;-77
2021/05/11 04:39:49;;;;;;;24.75;16.58;;;12.90;99.90;;;;;;6200071;28;20093;-78
2021/05/11 04:42:50;;;;;;;28.13;18.83;;;13.00;99.90;;;;;;6200784;28;20054;-78
2021/05/11 04:46:03;;;;;;;30.50;19.08;;;13.00;99.90;;;;;;6200085;28;20050;-78
2021/05/11 04:49:05;;;;;;;28.05;15.30;;;13.10;99.90;;;;;;6199865;28;20198;-78
2021/05/11 04:52:06;;;;;;;28.85;15.82;;;13.10;99.90;;;;;;6199730;28;20155;-78
2021/05/11 04:55:08;;;;;;;27.38;16.15;;;13.10;99.90;;;;;;6201325;28;20066;-78
2021/05/11 04:58:10;;;;;;;24.83;16.23;;;13.20;99.90;;;;;;6200223;28;20113;-77
2021/05/11 05:01:12;;;;;;;24.77;15.40;;;13.20;99.90;;;;;;6199184;28;20046;-78
2021/05/11 05:04:15;;;;;;;25.38;15.52;;;13.20;99.90;;;;;;6199742;28;20051;-78
2021/05/11 05:07:16;;;;;;;18.67;12.52;;;13.30;99.90;;;;;;6199988;28;20053;-78
2021/05/11 05:10:18;;;;;;;22.08;13.73;;;13.40;99.90;;;;;;6199038;28;20586;-77
2021/05/11 05:13:20;;;;;;;19.88;13.35;;;13.40;99.90;;;;;;6199740;28;20125;-78
2021/05/11 05:16:22;;;;;;;20.75;13.57;;;13.50;99.90;;;;;;6198976;28;20408;-78
2021/05/11 05:19:23;;;;;;;20.17;12.85;;;13.60;99.90;;;;;;6199526;28;20142;-78
2021/05/11 05:22:25;;;;;;;18.27;12.77;;;13.60;99.90;;;;;;6198835;28;20546;-78
2021/05/11 05:25:28;;;;;;;17.13;14.10;;;13.70;99.90;;;;;;6199150;28;20070;-78
2021/05/11 05:28:29;;;;;;;19.23;13.38;;;13.70;99.90;;;;;;6198497;28;20064;-78
2021/05/11 05:31:31;;;;;;;19.17;14.23;;;13.80;99.90;;;;;;6199639;28;20096;-78
2021/05/11 05:34:33;;;;;;;20.08;14.63;;;14.00;99.90;;;;;;6198806;28;20096;-78
2021/05/11 05:37:34;;;;;;;15.85;12.30;;;14.00;99.90;;;;;;6198655;28;20049;-78
2021/05/11 05:40:39;;;;;;;17.35;12.25;;;14.00;99.90;;;;;;6198210;28;20076;-77
2021/05/11 05:43:40;;;;;;;13.88;12.05;;;14.00;99.90;;;;;;6198884;28;20398;-78
2021/05/11 05:46:43;;;;;;;13.75;11.80;;;14.00;99.90;;;;;;6198622;28;20078;-77
2021/05/11 05:49:46;;;;;;;22.48;19.13;;;14.00;99.90;;;;;;6198582;28;20133;-78
2021/05/11 05:52:50;;;;;;;16.90;13.82;;;14.00;99.90;;;;;;6198383;28;20046;-77
2021/05/11 05:55:52;;;;;;;17.52;14.00;;;14.00;99.90;;;;;;6198086;28;20046;-77
2021/05/11 05:58:53;;;;;;;24.40;15.25;;;14.10;99.90;;;;;;6198561;28;20134;-77
2021/05/11 06:01:57;;;;;;;21.08;15.32;;;14.20;99.90;;;;;;6197886;28;20062;-76
2021/05/11 06:04:58;;;;;;;23.45;18.05;;;14.10;99.90;;;;;;6187118;28;20058;-77
2021/05/11 06:07:59;;;;;;;23.60;18.35;;;14.20;99.90;;;;;;6198335;28;20488;-76
2021/05/11 06:11:07;;;;;;;17.80;12.93;;;14.20;99.90;;;;;;6197692;28;20056;-76
2021/05/11 06:14:15;;;;;;;20.60;15.45;;;14.20;99.90;;;;;;6198047;28;20108;-76
2021/05/11 06:17:17;;;;;;;21.05;14.93;;;14.20;99.90;;;;;;6198403;28;20054;-76
2021/05/11 06:20:18;;;;;;;23.73;17.00;;;14.20;99.90;;;;;;6197327;28;20089;-76
2021/05/11 06:23:20;;;;;;;18.98;16.02;;;14.10;99.90;;;;;;6197927;28;20123;-77
2021/05/11 06:26:21;;;;;;;18.35;15.43;;;14.20;99.90;;;;;;6197658;28;20047;-76
2021/05/11 06:29:24;;;;;;;23.25;16.05;;;14.20;99.90;;;;;;6197355;28;20124;-76
2021/05/11 06:32:27;;;;;;;20.70;17.20;;;14.20;99.90;;;;;;6197544;28;20070;-77
2021/05/11 06:35:29;;;;;;;19.73;15.10;;;14.30;99.90;;;;;;6197725;28;20046;-77
2021/05/11 06:38:31;;;;;;;22.58;15.43;;;14.40;99.90;;;;;;6197225;28;20104;-76
2021/05/11 06:41:33;;;;;;;19.33;13.65;;;14.40;99.90;;;;;;6196936;28;20436;-76
2021/05/11 06:44:42;;;;;;;20.58;14.45;;;14.40;99.90;;;;;;6197438;28;20185;-77
2021/05/11 06:47:57;;;;;;;18.38;13.82;;;14.40;99.90;;;;;;6197724;28;20054;-76
2021/05/11 06:54:16;;;;;;;18.38;15.35;;;14.50;99.90;;;;;;6197105;28;20145;-77
2021/05/11 06:57:18;;;;;;;18.27;13.07;;;14.50;99.90;;;;;;6197814;28;20129;-76
2021/05/11 07:00:20;;;;;;;18.58;14.10;;;14.60;99.90;;;;;;6196949;28;20050;-76
2021/05/11 07:03:22;;;;;;;17.15;14.63;;;14.70;99.90;;;;;;6198154;28;20042;-76
2021/05/11 07:06:24;;;;;;;13.57;11.05;;;14.70;99.90;;;;;;6197590;28;20057;-76
2021/05/11 07:09:34;;;;;;;14.75;12.18;;;14.70;99.90;;;;;;6197476;28;20467;-76
2021/05/11 07:15:55;;;;;;;15.57;12.57;;;14.60;99.90;;;;;;6197878;28;20079;-76
2021/05/11 07:18:57;;;;;;;16.38;12.75;;;14.60;99.90;;;;;;6202435;28;20066;-77
2021/05/11 07:21:59;;;;;;;17.10;13.63;;;14.60;99.90;;;;;;6205071;28;20046;-77
2021/05/11 07:25:00;;;;;;;17.38;12.85;;;14.60;99.90;;;;;;6207595;28;20057;-78
2021/05/11 07:31:20;;;;;;;;;;;14.60;99.90;;;;;;6210236;28;20053;-75
2021/05/11 07:34:22;;;;;;;19.80;13.00;;;14.60;99.90;;;;;;6221793;28;19905;-77
2021/05/11 07:37:24;;;;;;;16.95;12.70;;;14.70;99.90;;;;;;6231930;28;20034;-77
2021/05/11 07:40:25;;;;;;;16.67;14.00;;;14.70;99.90;;;;;;6232380;28;20030;-77
2021/05/11 07:43:28;;;;;;;15.38;11.70;;;14.80;99.90;;;;;;6232434;28;20046;-76
2021/05/11 07:46:49;;;;;;;14.65;11.20;;;15.10;99.90;;;;;;6230951;28;20061;-76
2021/05/11 08:03:41;;;;;;;11.00;9.90;;;16.80;99.90;;;;;;6204946;28;19922;-75
2021/05/11 08:10:25;;;;;;;9.00;8.10;;;17.50;98.50;;;;;;6186832;28;20515;-75
2021/05/11 08:16:45;;;;;;;7.55;6.60;;;17.30;95.30;;;;;;6182624;28;20530;-76
2021/05/11 08:19:56;;;;;;;7.63;6.93;;;17.20;95.20;;;;;;6202991;28;20062;-75
2021/05/11 08:29:42;;;;;;;8.45;6.75;;;17.70;93.90;;;;;;6200879;28;20042;-76
2021/05/11 08:32:43;;;;;;;5.40;4.85;;;18.00;93.40;;;;;;6200249;28;20077;-75
2021/05/11 08:35:45;;;;;;;5.03;4.63;;;18.10;92.90;;;;;;6199054;28;20455;-75
2021/05/11 08:38:47;;;;;;;3.95;3.65;;;18.00;92.50;;;;;;6199126;28;20078;-77
2021/05/11 08:41:48;;;;;;;5.82;3.60;;;17.80;92.60;;;;;;6199827;28;20503;-75
2021/05/11 08:44:50;;;;;;;3.22;2.92;;;17.50;92.60;;;;;;6199376;28;20497;-76
2021/05/11 08:47:52;;;;;;;4.97;4.15;;;17.30;92.70;;;;;;6199459;28;20054;-75
2021/05/11 08:50:59;;;;;;;2.83;2.55;;;17.10;93.30;;;;;;6199990;28;20046;-76
2021/05/11 08:54:21;;;;;;;3.53;3.20;;;16.90;93.50;;;;;;6199195;28;20134;-75
2021/05/11 09:25:11;;;;;;;3.47;3.17;;;16.80;94.50;;;;;;6199318;28;20042;-75
2021/05/11 09:28:28;;;;;;;3.97;3.55;;;16.90;93.40;;;;;;6199360;28;20130;-76
2021/05/11 09:31:48;;;;;;;4.05;3.38;;;17.00;93.10;;;;;;6198968;28;20077;-76
2021/05/11 09:35:18;;;;;;;5.18;3.85;;;17.00;93.00;;;;;;6198605;28;20063;-77
2021/05/11 09:45:29;;;;;;;4.32;2.15;;;17.20;91.70;;;;;;6199796;28;20468;-77
2021/05/11 09:54:13;;;;;;;5.20;2.63;;;17.20;91.40;;;;;;6199042;28;20050;-77
2021/05/11 09:56:13;;;;;;;2.83;2.63;;;17.10;91.30;;;;;;6198707;28;20046;-77
2021/05/11 09:59:46;;;;;;;3.40;2.03;;;17.10;91.00;;;;;;6199332;28;20060;-78
2021/05/11 10:44:22;;;;;;;3.45;2.17;;;17.50;89.50;;;;;;6201493;28;20040;-77
2021/05/11 10:47:23;;;;;;;5.15;2.80;;;17.50;90.10;;;;;;6202827;28;20143;-78
2021/05/11 10:50:46;;;;;;;2.40;2.22;;;17.60;90.00;;;;;;6199838;28;20520;-78
2021/05/11 10:54:01;;;;;;;5.30;2.63;;;17.50;90.00;;;;;;6198686;28;20069;-77
2021/05/11 10:57:06;;;;;;;3.97;3.25;;;17.40;90.10;;;;;;6198216;28;20092;-76
2021/05/11 11:00:38;;;;;;;3.10;2.70;;;17.30;90.40;;;;;;6202689;28;20062;-77
2021/05/11 11:04:07;;;;;;;2.78;2.58;;;17.30;90.70;;;;;;6203444;28;20046;-77
2021/05/11 11:07:09;;;;;;;4.22;2.80;;;17.30;90.50;;;;;;6203766;28;20125;-78
2021/05/11 11:10:13;;;;;;;10.25;6.00;;;17.30;90.40;;;;;;6202229;28;20054;-77
2021/05/11 11:13:14;;;;;;;6.13;4.70;;;17.30;90.40;;;;;;6201381;28;20070;-77
2021/05/11 11:16:17;;;;;;;7.18;5.68;;;17.30;90.30;;;;;;6202944;28;20078;-76
2021/05/11 11:19:18;;;;;;;7.05;3.17;;;17.20;90.50;;;;;;6202329;28;20054;-76
2021/05/11 11:25:59;;;;;;;7.82;3.22;;;17.00;90.90;;;;;;6164130;28;20052;-77
2021/05/11 11:29:01;;;;;;;3.80;2.72;;;16.90;91.00;;;;;;6201141;28;20077;-77
2021/05/11 11:32:02;;;;;;;1.65;1.55;;;16.80;90.80;;;;;;6201452;28;20583;-76
2021/05/11 11:35:05;;;;;;;3.72;1.90;;;16.60;91.10;;;;;;6201223;28;20103;-77
2021/05/11 11:38:07;;;;;;;1.92;1.65;;;16.50;91.40;;;;;;6201174;28;20125;-76
2021/05/11 11:41:09;;;;;;;2.75;1.70;;;16.50;91.60;;;;;;6202884;28;20113;-77
2021/05/11 11:44:15;;;;;;;1.83;1.50;;;16.40;91.80;;;;;;6202698;28;20116;-77
2021/05/11 11:47:16;;;;;;;1.98;1.77;;;16.30;91.80;;;;;;6203612;28;20149;-78
2021/05/11 11:50:17;;;;;;;2.13;1.90;;;16.30;92.10;;;;;;6202705;28;20090;-77
2021/05/11 11:53:21;;;;;;;3.90;1.77;;;16.40;92.30;;;;;;6202111;28;20046;-77
2021/05/11 11:57:44;;;;;;;3.10;1.52;;;16.40;92.10;;;;;;6201409;28;20050;-77
2021/05/11 12:00:00;;;;;;;2.80;2.17;;;16.40;92.00;;;;;;6200840;28;20416;-77
2021/05/11 12:03:03;;;;;;;2.17;1.90;;;16.40;92.10;;;;;;6202474;28;20054;-78
2021/05/11 12:06:05;;;;;;;1.60;1.50;;;16.40;92.30;;;;;;6203572;28;20131;-77
2021/05/11 12:09:07;;;;;;;2.00;1.80;;;16.30;92.70;;;;;;6200653;28;20046;-77
2021/05/11 12:12:10;;;;;;;2.95;1.20;;;16.30;92.90;;;;;;6201307;28;20106;-77
2021/05/11 12:15:15;;;;;;;2.53;1.60;;;16.20;92.90;;;;;;6201226;28;20047;-77
2021/05/11 12:18:18;;;;;;;1.20;1.08;;;16.10;92.70;;;;;;6201205;28;20057;-77
2021/05/11 12:21:19;;;;;;;0.82;0.82;;;16.10;92.60;;;;;;6202740;28;20053;-77
2021/05/11 12:24:24;;;;;;;0.85;0.80;;;16.10;92.40;;;;;;6200534;28;20117;-77
2021/05/11 12:27:26;;;;;;;4.85;1.25;;;16.10;92.50;;;;;;6201638;28;20130;-78
2021/05/11 12:30:40;;;;;;;1.17;1.08;;;16.10;92.50;;;;;;6203120;28;20062;-78
2021/05/11 12:33:43;;;;;;;1.65;0.75;;;16.20;92.60;;;;;;6202602;28;20042;-78
2021/05/11 12:36:48;;;;;;;2.10;0.98;;;16.10;92.60;;;;;;6201102;28;20050;-78
2021/05/11 12:39:56;;;;;;;1.42;0.90;;;16.10;92.70;;;;;;6200064;28;20136;-78
2021/05/11 12:43:00;;;;;;;;;;;16.00;92.80;;;;;;6201457;28;20050;-77
2021/05/11 12:46:02;;;;;;;5.35;2.08;;;16.00;93.00;;;;;;6199981;28;19928;-77
2021/05/11 12:49:05;;;;;;;1.27;0.90;;;16.00;93.30;;;;;;6200905;28;20073;-78
2021/05/11 12:52:09;;;;;;;1.70;1.00;;;16.00;93.60;;;;;;6201136;28;20145;-77
2021/05/11 12:55:18;;;;;;;1.38;1.27;;;16.00;93.70;;;;;;6201536;28;20050;-77
2021/05/11 12:58:36;;;;;;;1.83;1.05;;;15.90;93.70;;;;;;6200175;28;20054;-76
2021/05/11 13:01:54;;;;;;;1.17;1.07;;;15.90;94.20;;;;;;6200305;28;20053;-77
2021/05/11 13:05:07;;;;;;;1.03;1.00;;;15.80;94.60;;;;;;6199641;28;20389;-77
2021/05/11 13:25:17;;;;;;;4.03;1.33;;;15.50;96.90;;;;;;6200706;28;20076;-77
2021/05/11 13:28:22;;;;;;;2.10;0.80;;;15.50;97.50;;;;;;6203102;28;20047;-78
2021/05/11 13:31:29;;;;;;;1.20;1.10;;;15.40;98.20;;;;;;6202611;28;20058;-78
2021/05/11 13:34:34;;;;;;;3.40;1.30;;;15.30;99.20;;;;;;6201624;28;20069;-77
2021/05/11 13:37:35;;;;;;;1.20;1.10;;;15.10;99.90;;;;;;6201042;28;20046;-78
2021/05/11 13:40:36;;;;;;;2.65;1.58;;;15.00;99.90;;;;;;6201029;28;20140;-78
2021/05/11 13:43:37;;;;;;;3.78;1.77;;;14.90;99.90;;;;;;6202091;28;20110;-77
2021/05/11 13:46:40;;;;;;;4.38;1.95;;;14.80;99.90;;;;;;6199884;28;20074;-77
2021/05/11 13:49:41;;;;;;;31.10;28.02;;;14.80;99.90;;;;;;6201050;28;20129;-78
2021/05/11 13:52:43;;;;;;;7.72;6.78;;;14.90;99.90;;;;;;6201868;28;20051;-77
2021/05/11 13:55:53;;;;;;;5.50;4.88;;;14.90;99.90;;;;;;6203629;28;20050;-78
2021/05/11 14:05:31;;;;;;;2.30;1.90;;;14.80;99.90;;;;;;6197248;28;20081;-77
2021/05/11 14:08:32;;;;;;;3.38;2.70;;;14.80;99.90;;;;;;6198298;28;20627;-77
2021/05/11 14:11:34;;;;;;;7.22;6.57;;;14.80;99.90;;;;;;6199192;28;20149;-77
2021/05/11 14:14:35;;;;;;;4.85;4.45;;;14.80;99.90;;;;;;6195802;28;20125;-78
2021/05/11 14:17:37;;;;;;;9.05;6.65;;;14.80;99.90;;;;;;6196483;28;20081;-78
2021/05/11 14:20:39;;;;;;;2.97;2.63;;;14.90;99.90;;;;;;6198988;28;20042;-78
2021/05/11 14:23:41;;;;;;;3.05;2.75;;;14.90;99.90;;;;;;6201518;28;20082;-77
2021/05/11 14:26:43;;;;;;;16.33;14.82;;;14.90;99.90;;;;;;6200172;28;20060;-78
2021/05/11 14:29:45;;;;;;;4.75;4.35;;;14.90;99.90;;;;;;6198393;28;20132;-77
2021/05/11 14:32:47;;;;;;;6.13;3.40;;;14.90;99.90;;;;;;6197993;28;20050;-77
2021/05/11 14:35:48;;;;;;;4.88;2.78;;;14.90;99.90;;;;;;6202632;28;20069;-76
2021/05/11 14:38:50;;;;;;;3.08;2.53;;;14.90;99.90;;;;;;6201974;28;20476;-77
2021/05/11 14:41:53;;;;;;;5.05;3.13;;;14.80;99.90;;;;;;6202982;28;20582;-77
2021/05/11 14:44:55;;;;;;;6.45;5.97;;;14.70;99.90;;;;;;6202303;28;20176;-77
2021/05/11 14:47:57;;;;;;;8.20;7.40;;;14.70;99.90;;;;;;6201956;28;20421;-77
2021/05/11 14:51:00;;;;;;;6.47;5.88;;;14.80;99.90;;;;;;6202299;28;20137;-77
2021/05/11 14:54:02;;;;;;;5.68;4.97;;;14.80;99.90;;;;;;6201657;28;20053;-77
2021/05/11 14:57:04;;;;;;;6.05;4.07;;;14.70;99.90;;;;;;6202209;28;20051;-78
2021/05/11 15:00:08;;;;;;;5.05;4.30;;;14.80;99.90;;;;;;6201327;28;20050;-76
2021/05/11 15:03:11;;;;;;;7.38;6.63;;;14.70;99.90;;;;;;6202283;28;20497;-76
2021/05/11 15:06:13;;;;;;;4.63;4.18;;;14.70;99.90;;;;;;6202043;28;20132;-77
2021/05/11 15:09:14;;;;;;;5.68;5.18;;;14.70;99.90;;;;;;6201936;28;20137;-77
2021/05/11 15:12:15;;;;;;;5.60;5.10;;;14.70;99.90;;;;;;6201940;28;20050;-77
2021/05/11 15:15:20;;;;;;;4.80;4.15;;;14.70;99.90;;;;;;6202045;28;20050;-77
2021/05/11 15:18:22;;;;;;;4.55;4.15;;;14.70;99.90;;;;;;6201584;28;20050;-78
2021/05/11 15:21:24;;;;;;;18.85;16.45;;;14.80;99.90;;;;;;6202645;28;20077;-73
2021/05/11 15:24:25;;;;;;;9.60;6.82;;;14.80;99.90;;;;;;6201759;28;20042;-77
2021/05/11 15:27:28;;;;;;;31.88;23.90;;;14.70;99.90;;;;;;6203538;28;20104;-78
2021/05/11 15:30:31;;;;;;;5.78;4.50;;;14.70;99.90;;;;;;6203415;28;20052;-77
2021/05/11 15:33:34;;;;;;;13.05;11.75;;;14.60;99.90;;;;;;6202692;28;20412;-77
2021/05/11 15:36:35;;;;;;;3.80;3.25;;;14.60;99.90;;;;;;6202835;28;20520;-78
2021/05/11 15:39:36;;;;;;;9.90;8.68;;;14.60;99.90;;;;;;6248853;23;20658;-76
2021/05/11 15:42:38;;;;;;;4.03;3.67;;;14.60;99.90;;;;;;6225014;28;20077;-75
2021/05/11 15:45:39;;;;;;;6.88;4.45;;;14.60;99.90;;;;;;6224304;28;20568;-74
2021/05/11 15:48:41;;;;;;;8.07;4.90;;;14.60;99.90;;;;;;6224511;28;20082;-75
2021/05/11 15:51:42;;;;;;;6.20;5.60;;;14.60;99.90;;;;;;6225054;28;20481;-75
2021/05/11 15:54:44;;;;;;;5.15;3.88;;;14.60;99.90;;;;;;6224566;28;20066;-75
2021/05/11 15:57:45;;;;;;;6.20;4.43;;;14.60;99.90;;;;;;6224608;28;20099;-74
2021/05/11 16:00:50;;;;;;;4.68;3.35;;;14.60;99.90;;;;;;6224336;28;20410;-74
2021/05/11 16:03:52;;;;;;;4.90;3.60;;;14.50;99.90;;;;;;6224930;28;20053;-75
2021/05/11 16:06:54;;;;;;;5.07;3.08;;;14.40;99.90;;;;;;6224886;28;20080;-74
2021/05/11 16:09:55;;;;;;;5.72;4.05;;;14.40;99.90;;;;;;6224190;28;20046;-75
2021/05/11 16:12:56;;;;;;;5.05;4.13;;;14.40;99.90;;;;;;6223895;28;20125;-74
2021/05/11 16:15:59;;;;;;;6.70;4.18;;;14.40;99.90;;;;;;6223560;28;20125;-75
2021/05/11 16:19:02;;;;;;;13.65;7.45;;;14.40;99.90;;;;;;6223157;28;20137;-75
2021/05/11 16:22:03;;;;;;;24.10;11.80;;;14.40;99.90;;;;;;6223861;28;20070;-74
2021/05/11 16:25:06;;;;;;;16.48;9.07;;;14.40;99.90;;;;;;6224158;28;20084;-74
2021/05/11 16:28:08;;;;;;;12.50;7.22;;;14.50;99.90;;;;;;6224078;28;20054;-75
2021/05/11 16:31:10;;;;;;;7.18;6.47;;;14.60;99.90;;;;;;6224337;28;20131;-75
2021/05/11 16:34:12;;;;;;;14.95;10.27;;;14.60;99.90;;;;;;6224530;28;20046;-75
2021/05/11 16:37:13;;;;;;;11.68;9.05;;;14.50;99.90;;;;;;6224066;28;20053;-75
2021/05/11 16:40:16;;;;;;;10.45;6.78;;;14.50;99.90;;;;;;6223129;28;20181;-75
2021/05/11 16:43:17;;;;;;;8.52;7.70;;;14.40;99.90;;;;;;6224138;28;20496;-75
2021/05/11 16:46:18;;;;;;;7.30;6.60;;;14.40;99.90;;;;;;6223501;28;20057;-76
2021/05/11 16:49:21;;;;;;;7.30;6.53;;;14.40;99.90;;;;;;6223062;28;20116;-75
2021/05/11 16:52:22;;;;;;;6.15;5.40;;;14.30;99.90;;;;;;6223604;28;20045;-75
2021/05/11 16:55:24;;;;;;;7.63;6.30;;;14.30;99.90;;;;;;6223100;28;20189;-75
2021/05/11 16:58:25;;;;;;;8.43;5.15;;;14.20;99.90;;;;;;6222877;28;20080;-75
2021/05/11 17:01:27;;;;;;;5.30;4.90;;;14.20;99.90;;;;;;6223213;28;20069;-75
2021/05/11 17:04:29;;;;;;;6.72;5.45;;;14.20;99.90;;;;;;6223160;28;20415;-75
2021/05/11 17:07:30;;;;;;;12.48;11.68;;;14.10;99.90;;;;;;6223642;28;20053;-75
2021/05/11 17:10:33;;;;;;;11.55;5.35;;;14.00;99.90;;;;;;6222869;28;20459;-75
2021/05/11 17:13:39;;;;;;;6.00;5.28;;;13.90;99.90;;;;;;6222693;28;20494;-75
2021/05/11 17:16:40;;;;;;;7.18;4.45;;;13.90;99.90;;;;;;6221007;28;20046;-75
2021/05/11 17:19:43;;;;;;;6.75;4.72;;;13.80;99.90;;;;;;6218283;28;20092;-75
2021/05/11 17:22:44;;;;;;;6.00;3.47;;;13.80;99.90;;;;;;6222808;28;20133;-75
2021/05/11 17:25:47;;;;;;;3.47;2.75;;;13.70;99.90;;;;;;6222651;28;20073;-75
2021/05/11 17:28:51;;;;;;;3.58;3.28;;;13.70;99.90;;;;;;6222748;28;20042;-76
2021/05/11 17:31:52;;;;;;;3.72;3.33;;;13.60;99.90;;;;;;6223628;28;20054;-75
2021/05/11 17:34:54;;;;;;;2.58;2.35;;;13.60;99.90;;;;;;6222990;28;20104;-74
2021/05/11 17:37:57;;;;;;;3.15;2.53;;;13.60;99.90;;;;;;6222309;28;20534;-74
2021/05/11 17:40:59;;;;;;;4.47;3.17;;;13.50;99.90;;;;;;6222065;28;20056;-75
2021/05/11 17:44:02;;;;;;;4.38;3.08;;;13.50;99.90;;;;;;6222219;28;20045;-75
2021/05/11 17:47:03;;;;;;;4.63;1.85;;;13.50;99.90;;;;;;6223060;28;20046;-75
2021/05/11 17:50:07;;;;;;;2.28;1.88;;;13.40;99.90;;;;;;6222407;28;20049;-75
2021/05/11 17:53:08;;;;;;;2.13;1.88;;;13.40;99.90;;;;;;6223832;28;20048;-75
2021/05/11 17:56:10;;;;;;;5.40;2.08;;;13.40;99.90;;;;;;6222303;28;20153;-75
2021/05/11 17:59:11;;;;;;;2.72;2.45;;;13.40;99.90;;;;;;6222133;28;20136;-75
2021/05/11 18:02:13;;;;;;;5.03;4.45;;;13.30;99.90;;;;;;6222220;28;20511;-75
2021/05/11 18:05:15;;;;;;;5.05;3.08;;;13.30;99.90;;;;;;6221927;28;20133;-75
2021/05/11 18:08:22;;;;;;;2.22;2.03;;;13.30;99.90;;;;;;6221644;28;20554;-75
2021/05/11 18:11:23;;;;;;;2.30;2.08;;;13.30;99.90;;;;;;6221919;28;20100;-75
2021/05/11 18:14:24;;;;;;;2.55;2.08;;;13.20;99.90;;;;;;6222349;28;20495;-75
2021/05/11 18:17:26;;;;;;;4.15;1.98;;;13.20;99.90;;;;;;6221280;28;20077;-75
2021/05/11 18:20:28;;;;;;;4.53;2.45;;;13.20;99.90;;;;;;6217903;28;20507;-74
2021/05/11 18:23:29;;;;;;;1.63;1.52;;;13.10;99.90;;;;;;6222246;28;20084;-74
2021/05/11 18:26:31;;;;;;;2.65;1.95;;;13.10;99.90;;;;;;6221808;28;20082;-75
2021/05/11 18:29:33;;;;;;;4.25;2.40;;;13.00;99.90;;;;;;6221398;28;20064;-76
2021/05/11 18:32:34;;;;;;;2.58;2.25;;;12.90;99.90;;;;;;6221330;28;20069;-75
2021/05/11 18:35:37;;;;;;;4.13;2.00;;;12.90;99.90;;;;;;6222205;28;20208;-75
2021/05/11 18:38:43;;;;;;;2.70;2.50;;;12.90;99.90;;;;;;6221015;28;20100;-75
2021/05/11 18:41:44;;;;;;;5.82;2.58;;;12.80;99.90;;;;;;6221825;28;20050;-73
2021/05/11 18:44:45;;;;;;;7.03;2.80;;;12.70;99.90;;;;;;6221326;28;20060;-74
2021/05/11 18:47:56;;;;;;;4.43;2.85;;;12.60;99.90;;;;;;6221990;28;20500;-77
2021/05/11 18:50:58;;;;;;;3.53;2.53;;;12.60;99.90;;;;;;6221798;28;20141;-74
2021/05/11 18:54:00;;;;;;;7.70;3.13;;;12.60;99.90;;;;;;6221439;28;20046;-75
2021/05/11 18:57:01;;;;;;;4.65;3.25;;;12.50;99.90;;;;;;6221081;28;20054;-76